Pride Of Kent — MQCJ2 — position and weather

sailwx.info

Track history (hours):
 
Tides and Currents Weather Stations Pressure Air Temp Water Temp Dewpoint Dewpoint Depression Visibility Wind Speed Wind Dir Waves Ship Positions

Pride Of Kent

Operator: P & O Ferries

Last reported at 2014-Jul-28 16:21 UTC. Time now 2014-Jul-28 16:35 UTC.
Position N 51°07' E 001°22'.

Length 180 m; draft 5.8 m.

Type: Passenger vessel. MMSI: 233009000.

Date/timePositionNaut miles runAvg speedWind from/ knotsBaromVisibWave heightAir tempDewpointWater temp
2014-Jul-28 16:21N 51°07' E 001°22'1316.5
2014-Jul-28 15:33N 51°00' E 001°40'8 6.4
2014-Jul-28 14:21N 50°58' E 001°52'11 9.3
2014-Jul-28 13:09N 51°01' E 001°35'10 5.9
2014-Jul-28 11:31N 51°07' E 001°22'1717.2
2014-Jul-28 10:33N 50°58' E 001°45'4 3.6
2014-Jul-28 09:19N 50°58' E 001°52'8 9.2
2014-Jul-28 08:25N 50°58' E 001°38'15 6.7
2014-Jul-28 06:13N 51°07' E 001°20'1116.3
2014-Jul-28 05:33N 51°02' E 001°35'1110.4
2014-Jul-28 04:32N 50°58' E 001°51'2 2.1
2014-Jul-28 03:25N 50°58' E 001°47'1517.1
2014-Jul-28 02:33N 51°06' E 001°27'5 4.7
2014-Jul-28 01:33N 51°07' E 001°20'4 4.3
2014-Jul-28 00:33N 51°06' E 001°27'1615.6
2014-Jul-27 23:34N 50°58' E 001°48'2 1.9
2014-Jul-27 22:32N 50°58' E 001°51'1414.5
2014-Jul-27 21:33N 51°03' E 001°30'8 7.0
2014-Jul-27 20:27N 51°07' E 001°20'1516.9
2014-Jul-27 19:34N 50°60' E 001°41'6 5.1
2014-Jul-27 18:19N 50°58' E 001°51'1013.2
2014-Jul-27 17:33N 51°00' E 001°35'6 2.8
2014-Jul-27 15:33N 51°05' E 001°29'13 6.7
2014-Jul-27 13:33N 50°58' E 001°48'1515.0
2014-Jul-27 12:34N 51°05' E 001°26'3 2.6
2014-Jul-27 11:14N 51°07' E 001°23'1116.7
2014-Jul-27 10:33N 51°01' E 001°38'3 1.5
2014-Jul-27 08:29N 50°58' E 001°37'15 6.3
2014-Jul-27 06:10N 51°07' E 001°20'610.0
2014-Jul-27 05:33N 51°05' E 001°29'1515.5
2014-Jul-27 04:33N 50°58' E 001°51'2 1.8
2014-Jul-27 03:34N 50°58' E 001°48'1616.1
2014-Jul-27 02:33N 51°06' E 001°25'4 3.6
2014-Jul-27 01:31N 51°07' E 001°20'6 6.1
2014-Jul-27 00:33N 51°05' E 001°29'1514.9
2014-Jul-26 23:34N 50°58' E 001°50'1 0.8
2014-Jul-26 22:34N 50°58' E 001°51'1413.9
2014-Jul-26 21:33N 51°03' E 001°30'8 2.6
2014-Jul-26 18:33N 51°07' E 001°20'0 0.0
2014-Jul-26 16:24N 51°07' E 001°20'6 6.6
2014-Jul-26 15:33N 51°06' E 001°29'1616.0
2014-Jul-26 14:34N 50°58' E 001°51'0 0.4
2014-Jul-26 13:30N 50°58' E 001°50'1616.7
2014-Jul-26 12:34N 51°04' E 001°26'4 3.0
2014-Jul-26 11:07N 51°07' E 001°22'916.6
2014-Jul-26 10:33N 51°03' E 001°35'3 1.3
2014-Jul-26 08:12N 51°00' E 001°37'1116.9
2014-Jul-26 07:33N 51°06' E 001°23'1 0.8
2014-Jul-26 06:03N 51°07' E 001°22'917.9
2014-Jul-26 05:33N 51°03' E 001°35'11 8.6
2014-Jul-26 04:14N 50°58' E 001°51'5 6.1
2014-Jul-26 03:25N 50°58' E 001°43'1315.5
2014-Jul-26 02:33N 51°05' E 001°25'4 2.0
2014-Jul-26 00:33N 51°05' E 001°32'1414.2
2014-Jul-25 23:33N 50°58' E 001°51'3 3.4
2014-Jul-25 22:33N 50°58' E 001°46'18 8.5
2014-Jul-25 20:28N 51°07' E 001°22'1617.5
2014-Jul-25 19:33N 50°59' E 001°43'5 4.7
2014-Jul-25 18:33N 50°58' E 001°51'1313.2
2014-Jul-25 17:33N 51°02' E 001°31'9 8.5
2014-Jul-25 16:32N 51°07' E 001°20'7 6.7
2014-Jul-25 15:34N 51°05' E 001°30'1514.9
2014-Jul-25 14:33N 50°58' E 001°51'1 0.6
2014-Jul-25 13:33N 50°58' E 001°50'1616.2
2014-Jul-25 12:34N 51°05' E 001°27'5 3.8
2014-Jul-25 11:20N 51°07' E 001°20'1114.6
2014-Jul-25 10:33N 51°02' E 001°36'10 9.7
2014-Jul-25 09:29N 50°58' E 001°51'4 4.1
2014-Jul-25 08:33N 50°58' E 001°45'1716.6
2014-Jul-25 07:33N 51°06' E 001°23'1 0.6
2014-Jul-25 06:06N 51°07' E 001°22'1017.5
2014-Jul-25 05:34N 51°02' E 001°35'1110.9
2014-Jul-25 04:33N 50°58' E 001°51'2 1.9
2014-Jul-25 03:33N 50°58' E 001°48'1616.2
2014-Jul-25 02:33N 51°05' E 001°25'4 3.5
2014-Jul-25 01:31N 51°07' E 001°20'1414.8
2014-Jul-25 00:33N 51°01' E 001°40'8 7.7
2014-Jul-24 23:34N 50°58' E 001°51'1010.0
2014-Jul-24 22:33N 51°00' E 001°36'11 5.3
2014-Jul-24 20:33N 51°07' E 001°23'1615.7
2014-Jul-24 19:33N 50°58' E 001°44'4 4.3
2014-Jul-24 18:33N 50°58' E 001°51'1211.6
2014-Jul-24 17:33N 51°02' E 001°34'10 8.3
2014-Jul-24 16:19N 51°07' E 001°20'6 7.5
2014-Jul-24 15:33N 51°05' E 001°28'1615.7
2014-Jul-24 14:33N 50°58' E 001°51'1 1.2
2014-Jul-24 13:33N 50°58' E 001°49'1616.2
2014-Jul-24 12:33N 51°05' E 001°25'4 3.8
2014-Jul-24 11:27N 51°07' E 001°20'1112.4
2014-Jul-24 10:34N 51°02' E 001°36'10 9.8
2014-Jul-24 09:29N 50°58' E 001°51'3 3.5
2014-Jul-24 08:33N 50°58' E 001°46'1717.1
2014-Jul-24 07:33N 51°06' E 001°22'2 1.5
2014-Jul-24 06:28N 51°07' E 001°20'1213.6
2014-Jul-24 05:33N 51°01' E 001°37'9 9.1
2014-Jul-24 04:33N 50°58' E 001°51'3 3.3
2014-Jul-24 03:34N 50°58' E 001°46'1616.3
2014-Jul-24 02:33N 51°05' E 001°22'3 2.5
2014-Jul-24 01:33N 51°07' E 001°20'1515.0
2014-Jul-24 00:34N 51°00' E 001°41'7 7.0
2014-Jul-23 23:33N 50°58' E 001°51'8 8.4
2014-Jul-23 22:33N 50°60' E 001°38'14 9.5
2014-Jul-23 21:08N 51°07' E 001°20'4 6.1
2014-Jul-23 20:34N 51°06' E 001°25'1716.6
2014-Jul-23 19:34N 50°58' E 001°49'2 1.5
2014-Jul-23 18:33N 50°58' E 001°51'1414.0
2014-Jul-23 17:33N 51°01' E 001°29'9 5.7
2014-Jul-23 16:03N 51°07' E 001°20'611.6
2014-Jul-23 15:33N 51°06' E 001°29'1615.7
2014-Jul-23 14:34N 50°58' E 001°51'0 0.4
2014-Jul-23 13:30N 50°58' E 001°50'1516.1
2014-Jul-23 12:33N 51°04' E 001°28'6 5.0
2014-Jul-23 11:23N 51°07' E 001°20'1012.6
2014-Jul-23 10:33N 51°03' E 001°35'7 3.6
2014-Jul-23 08:29N 50°58' E 001°44'16 6.8
2014-Jul-23 06:05N 51°07' E 001°22'917.7
2014-Jul-23 05:33N 51°03' E 001°36'11 9.7
2014-Jul-23 04:27N 50°58' E 001°51'2 2.0
2014-Jul-23 03:32N 50°58' E 001°48'1515.6
2014-Jul-23 02:34N 51°05' E 001°26'5 2.5
2014-Jul-23 00:33N 51°04' E 001°34'1210.7
2014-Jul-22 23:27N 50°58' E 001°51'9 9.7
2014-Jul-22 22:29N 51°00' E 001°37'8 4.2
2014-Jul-22 20:33N 51°06' E 001°27'1615.6
2014-Jul-22 19:33N 50°58' E 001°49'1 1.0
2014-Jul-22 18:27N 50°58' E 001°51'1416.0
2014-Jul-22 17:33N 51°03' E 001°30'7 6.9
2014-Jul-22 16:29N 51°07' E 001°20'1111.9
2014-Jul-22 15:34N 51°02' E 001°35'2 0.8
2014-Jul-22 13:04N 50°60' E 001°34'917.3
2014-Jul-22 12:33N 51°06' E 001°24'3 2.5
2014-Jul-22 11:33N 51°07' E 001°20'1414.0
2014-Jul-22 10:33N 51°00' E 001°39'1 0.6
2014-Jul-22 08:16N 50°60' E 001°37'12 6.2
2014-Jul-22 06:17N 51°07' E 001°22'1114.9
2014-Jul-22 05:34N 51°02' E 001°37'6 3.1
2014-Jul-22 03:30N 50°58' E 001°45'1616.9
2014-Jul-22 02:34N 51°06' E 001°23'3 1.3
2014-Jul-22 00:33N 51°06' E 001°27'1716.4
2014-Jul-21 23:33N 50°58' E 001°50'8 5.3
2014-Jul-21 22:07N 50°59' E 001°39'1017.6
2014-Jul-21 21:34N 51°05' E 001°27'3 2.8
2014-Jul-21 20:22N 51°07' E 001°22'115.6
2014-Jul-21 20:18N 51°07' E 001°24'1216.7
2014-Jul-21 19:33N 51°01' E 001°41'7 3.7
2014-Jul-21 17:33N 51°01' E 001°29'3 1.5
2014-Jul-21 15:33N 51°03' E 001°33'5 2.0
2014-Jul-21 13:06N 50°59' E 001°39'1017.6
2014-Jul-21 12:34N 51°05' E 001°26'5 2.5
2014-Jul-21 10:33N 51°04' E 001°34'6 2.8
2014-Jul-21 08:19N 50°59' E 001°41'16 8.5
2014-Jul-21 06:30N 51°07' E 001°20'1212.4
2014-Jul-21 05:33N 51°03' E 001°37'10 9.1
2014-Jul-21 04:28N 50°58' E 001°51'18 9.3
2014-Jul-21 02:34N 51°05' E 001°25'2 0.8
2014-Jul-21 00:33N 51°07' E 001°24'1615.9
2014-Jul-20 23:33N 50°58' E 001°46'3 2.8
2014-Jul-20 22:23N 50°58' E 001°51'1415.2
2014-Jul-20 21:27N 51°04' E 001°30'7 5.4
2014-Jul-20 20:07N 51°07' E 001°20'915.3
2014-Jul-20 19:33N 51°05' E 001°33'13 8.8
2014-Jul-20 18:06N 50°58' E 001°51'1118.8
2014-Jul-20 17:33N 51°01' E 001°34'1111.3
2014-Jul-20 16:32N 51°07' E 001°20'1010.0
2014-Jul-20 15:33N 51°04' E 001°34'8 4.1
2014-Jul-20 13:30N 50°58' E 001°44'17 7.2
2014-Jul-20 11:12N 51°07' E 001°22'1015.6
2014-Jul-20 10:34N 51°02' E 001°36'10 8.2
2014-Jul-20 09:17N 50°58' E 001°51'8 8.9
2014-Jul-20 08:23N 50°58' E 001°38'1416.4
2014-Jul-20 07:30N 51°07' E 001°20'0 0.0
2014-Jul-20 06:16N 51°07' E 001°20'6 7.9
2014-Jul-20 05:34N 51°06' E 001°28'1616.1
2014-Jul-20 04:34N 50°58' E 001°51'1 0.7
2014-Jul-20 03:33N 50°58' E 001°50'1717.0
2014-Jul-20 02:33N 51°05' E 001°25'5 0.8
2014-Jul-19 20:33N 51°04' E 001°33'1312.9
2014-Jul-19 19:33N 50°58' E 001°51'0 0.1
2014-Jul-19 18:32N 50°58' E 001°51'7 7.5
2014-Jul-19 17:33N 50°59' E 001°39'11 5.3
2014-Jul-19 15:34N 51°07' E 001°28'1716.6
2014-Jul-19 14:33N 50°58' E 001°51'0 0.2
2014-Jul-19 13:22N 50°58' E 001°50'1417.0
2014-Jul-19 12:34N 51°03' E 001°30'2 0.9
2014-Jul-19 10:33N 51°03' E 001°33'11 5.4
2014-Jul-19 08:33N 50°58' E 001°48'18 7.4
2014-Jul-19 06:04N 51°07' E 001°22'917.7
2014-Jul-19 05:33N 51°03' E 001°35'1110.8
2014-Jul-19 04:32N 50°58' E 001°51'3 3.3
2014-Jul-19 03:33N 50°58' E 001°46'1615.6
2014-Jul-19 02:33N 51°06' E 001°25'3 3.3
2014-Jul-19 01:32N 51°07' E 001°20'5 5.0
2014-Jul-19 00:33N 51°06' E 001°27'1716.7
2014-Jul-18 23:33N 50°58' E 001°51'3 2.8
2014-Jul-18 22:34N 50°58' E 001°47'18 8.7
2014-Jul-18 20:30N 51°07' E 001°23'5 5.8
2014-Jul-18 19:33N 51°05' E 001°30'1514.5
2014-Jul-18 18:33N 50°58' E 001°51'6 5.6
2014-Jul-18 17:33N 50°58' E 001°42'1716.6
2014-Jul-18 16:33N 51°07' E 001°20'2 2.1
2014-Jul-18 15:34N 51°07' E 001°23'  
Track history (hours):
 
Tides and Currents Weather Stations Pressure Air Temp Water Temp Dewpoint Dewpoint Depression Visibility Wind Speed Wind Dir Waves Ship Positions

Pride Of Kent

Operator: P & O Ferries

Last reported at 2014-Jul-28 16:21 UTC. Time now 2014-Jul-28 16:35 UTC.
Position N 51°07' E 001°22'.

Length 180 m; draft 5.8 m.

Type: Passenger vessel. MMSI: 233009000.

Date/timePositionNaut miles runAvg speedWind from/ knotsBaromVisibWave heightAir tempDewpointWater temp
2014-Jul-28 16:21N 51°07' E 001°22'1316.5
2014-Jul-28 15:33N 51°00' E 001°40'8 6.4
2014-Jul-28 14:21N 50°58' E 001°52'11 9.3
2014-Jul-28 13:09N 51°01' E 001°35'10 5.9
2014-Jul-28 11:31N 51°07' E 001°22'1717.2
2014-Jul-28 10:33N 50°58' E 001°45'4 3.6
2014-Jul-28 09:19N 50°58' E 001°52'8 9.2
2014-Jul-28 08:25N 50°58' E 001°38'15 6.7
2014-Jul-28 06:13N 51°07' E 001°20'1116.3
2014-Jul-28 05:33N 51°02' E 001°35'1110.4
2014-Jul-28 04:32N 50°58' E 001°51'2 2.1
2014-Jul-28 03:25N 50°58' E 001°47'1517.1
2014-Jul-28 02:33N 51°06' E 001°27'5 4.7
2014-Jul-28 01:33N 51°07' E 001°20'4 4.3
2014-Jul-28 00:33N 51°06' E 001°27'1615.6
2014-Jul-27 23:34N 50°58' E 001°48'2 1.9
2014-Jul-27 22:32N 50°58' E 001°51'1414.5
2014-Jul-27 21:33N 51°03' E 001°30'8 7.0
2014-Jul-27 20:27N 51°07' E 001°20'1516.9
2014-Jul-27 19:34N 50°60' E 001°41'6 5.1
2014-Jul-27 18:19N 50°58' E 001°51'1013.2
2014-Jul-27 17:33N 51°00' E 001°35'6 2.8
2014-Jul-27 15:33N 51°05' E 001°29'13 6.7
2014-Jul-27 13:33N 50°58' E 001°48'1515.0
2014-Jul-27 12:34N 51°05' E 001°26'3 2.6
2014-Jul-27 11:14N 51°07' E 001°23'1116.7
2014-Jul-27 10:33N 51°01' E 001°38'3 1.5
2014-Jul-27 08:29N 50°58' E 001°37'15 6.3
2014-Jul-27 06:10N 51°07' E 001°20'610.0
2014-Jul-27 05:33N 51°05' E 001°29'1515.5
2014-Jul-27 04:33N 50°58' E 001°51'2 1.8
2014-Jul-27 03:34N 50°58' E 001°48'1616.1
2014-Jul-27 02:33N 51°06' E 001°25'4 3.6
2014-Jul-27 01:31N 51°07' E 001°20'6 6.1
2014-Jul-27 00:33N 51°05' E 001°29'1514.9
2014-Jul-26 23:34N 50°58' E 001°50'1 0.8
2014-Jul-26 22:34N 50°58' E 001°51'1413.9
2014-Jul-26 21:33N 51°03' E 001°30'8 2.6
2014-Jul-26 18:33N 51°07' E 001°20'0 0.0
2014-Jul-26 16:24N 51°07' E 001°20'6 6.6
2014-Jul-26 15:33N 51°06' E 001°29'1616.0
2014-Jul-26 14:34N 50°58' E 001°51'0 0.4
2014-Jul-26 13:30N 50°58' E 001°50'1616.7
2014-Jul-26 12:34N 51°04' E 001°26'4 3.0
2014-Jul-26 11:07N 51°07' E 001°22'916.6
2014-Jul-26 10:33N 51°03' E 001°35'3 1.3
2014-Jul-26 08:12N 51°00' E 001°37'1116.9
2014-Jul-26 07:33N 51°06' E 001°23'1 0.8
2014-Jul-26 06:03N 51°07' E 001°22'917.9
2014-Jul-26 05:33N 51°03' E 001°35'11 8.6
2014-Jul-26 04:14N 50°58' E 001°51'5 6.1
2014-Jul-26 03:25N 50°58' E 001°43'1315.5
2014-Jul-26 02:33N 51°05' E 001°25'4 2.0
2014-Jul-26 00:33N 51°05' E 001°32'1414.2
2014-Jul-25 23:33N 50°58' E 001°51'3 3.4
2014-Jul-25 22:33N 50°58' E 001°46'18 8.5
2014-Jul-25 20:28N 51°07' E 001°22'1617.5
2014-Jul-25 19:33N 50°59' E 001°43'5 4.7
2014-Jul-25 18:33N 50°58' E 001°51'1313.2
2014-Jul-25 17:33N 51°02' E 001°31'9 8.5
2014-Jul-25 16:32N 51°07' E 001°20'7 6.7
2014-Jul-25 15:34N 51°05' E 001°30'1514.9
2014-Jul-25 14:33N 50°58' E 001°51'1 0.6
2014-Jul-25 13:33N 50°58' E 001°50'1616.2
2014-Jul-25 12:34N 51°05' E 001°27'5 3.8
2014-Jul-25 11:20N 51°07' E 001°20'1114.6
2014-Jul-25 10:33N 51°02' E 001°36'10 9.7
2014-Jul-25 09:29N 50°58' E 001°51'4 4.1
2014-Jul-25 08:33N 50°58' E 001°45'1716.6
2014-Jul-25 07:33N 51°06' E 001°23'1 0.6
2014-Jul-25 06:06N 51°07' E 001°22'1017.5
2014-Jul-25 05:34N 51°02' E 001°35'1110.9
2014-Jul-25 04:33N 50°58' E 001°51'2 1.9
2014-Jul-25 03:33N 50°58' E 001°48'1616.2
2014-Jul-25 02:33N 51°05' E 001°25'4 3.5
2014-Jul-25 01:31N 51°07' E 001°20'1414.8
2014-Jul-25 00:33N 51°01' E 001°40'8 7.7
2014-Jul-24 23:34N 50°58' E 001°51'1010.0
2014-Jul-24 22:33N 51°00' E 001°36'11 5.3
2014-Jul-24 20:33N 51°07' E 001°23'1615.7
2014-Jul-24 19:33N 50°58' E 001°44'4 4.3
2014-Jul-24 18:33N 50°58' E 001°51'1211.6
2014-Jul-24 17:33N 51°02' E 001°34'10 8.3
2014-Jul-24 16:19N 51°07' E 001°20'6 7.5
2014-Jul-24 15:33N 51°05' E 001°28'1615.7
2014-Jul-24 14:33N 50°58' E 001°51'1 1.2
2014-Jul-24 13:33N 50°58' E 001°49'1616.2
2014-Jul-24 12:33N 51°05' E 001°25'4 3.8
2014-Jul-24 11:27N 51°07' E 001°20'1112.4
2014-Jul-24 10:34N 51°02' E 001°36'10 9.8
2014-Jul-24 09:29N 50°58' E 001°51'3 3.5
2014-Jul-24 08:33N 50°58' E 001°46'1717.1
2014-Jul-24 07:33N 51°06' E 001°22'2 1.5
2014-Jul-24 06:28N 51°07' E 001°20'1213.6
2014-Jul-24 05:33N 51°01' E 001°37'9 9.1
2014-Jul-24 04:33N 50°58' E 001°51'3 3.3
2014-Jul-24 03:34N 50°58' E 001°46'1616.3
2014-Jul-24 02:33N 51°05' E 001°22'3 2.5
2014-Jul-24 01:33N 51°07' E 001°20'1515.0
2014-Jul-24 00:34N 51°00' E 001°41'7 7.0
2014-Jul-23 23:33N 50°58' E 001°51'8 8.4
2014-Jul-23 22:33N 50°60' E 001°38'14 9.5
2014-Jul-23 21:08N 51°07' E 001°20'4 6.1
2014-Jul-23 20:34N 51°06' E 001°25'1716.6
2014-Jul-23 19:34N 50°58' E 001°49'2 1.5
2014-Jul-23 18:33N 50°58' E 001°51'1414.0
2014-Jul-23 17:33N 51°01' E 001°29'9 5.7
2014-Jul-23 16:03N 51°07' E 001°20'611.6
2014-Jul-23 15:33N 51°06' E 001°29'1615.7
2014-Jul-23 14:34N 50°58' E 001°51'0 0.4
2014-Jul-23 13:30N 50°58' E 001°50'1516.1
2014-Jul-23 12:33N 51°04' E 001°28'6 5.0
2014-Jul-23 11:23N 51°07' E 001°20'1012.6
2014-Jul-23 10:33N 51°03' E 001°35'7 3.6
2014-Jul-23 08:29N 50°58' E 001°44'16 6.8
2014-Jul-23 06:05N 51°07' E 001°22'917.7
2014-Jul-23 05:33N 51°03' E 001°36'11 9.7
2014-Jul-23 04:27N 50°58' E 001°51'2 2.0
2014-Jul-23 03:32N 50°58' E 001°48'1515.6
2014-Jul-23 02:34N 51°05' E 001°26'5 2.5
2014-Jul-23 00:33N 51°04' E 001°34'1210.7
2014-Jul-22 23:27N 50°58' E 001°51'9 9.7
2014-Jul-22 22:29N 51°00' E 001°37'8 4.2
2014-Jul-22 20:33N 51°06' E 001°27'1615.6
2014-Jul-22 19:33N 50°58' E 001°49'1 1.0
2014-Jul-22 18:27N 50°58' E 001°51'1416.0
2014-Jul-22 17:33N 51°03' E 001°30'7 6.9
2014-Jul-22 16:29N 51°07' E 001°20'1111.9
2014-Jul-22 15:34N 51°02' E 001°35'2 0.8
2014-Jul-22 13:04N 50°60' E 001°34'917.3
2014-Jul-22 12:33N 51°06' E 001°24'3 2.5
2014-Jul-22 11:33N 51°07' E 001°20'1414.0
2014-Jul-22 10:33N 51°00' E 001°39'1 0.6
2014-Jul-22 08:16N 50°60' E 001°37'12 6.2
2014-Jul-22 06:17N 51°07' E 001°22'1114.9
2014-Jul-22 05:34N 51°02' E 001°37'6 3.1
2014-Jul-22 03:30N 50°58' E 001°45'1616.9
2014-Jul-22 02:34N 51°06' E 001°23'3 1.3
2014-Jul-22 00:33N 51°06' E 001°27'1716.4
2014-Jul-21 23:33N 50°58' E 001°50'8 5.3
2014-Jul-21 22:07N 50°59' E 001°39'1017.6
2014-Jul-21 21:34N 51°05' E 001°27'3 2.8
2014-Jul-21 20:22N 51°07' E 001°22'115.6
2014-Jul-21 20:18N 51°07' E 001°24'1216.7
2014-Jul-21 19:33N 51°01' E 001°41'7 3.7
2014-Jul-21 17:33N 51°01' E 001°29'3 1.5
2014-Jul-21 15:33N 51°03' E 001°33'5 2.0
2014-Jul-21 13:06N 50°59' E 001°39'1017.6
2014-Jul-21 12:34N 51°05' E 001°26'5 2.5
2014-Jul-21 10:33N 51°04' E 001°34'6 2.8
2014-Jul-21 08:19N 50°59' E 001°41'16 8.5
2014-Jul-21 06:30N 51°07' E 001°20'1212.4
2014-Jul-21 05:33N 51°03' E 001°37'10 9.1
2014-Jul-21 04:28N 50°58' E 001°51'18 9.3
2014-Jul-21 02:34N 51°05' E 001°25'2 0.8
2014-Jul-21 00:33N 51°07' E 001°24'1615.9
2014-Jul-20 23:33N 50°58' E 001°46'3 2.8
2014-Jul-20 22:23N 50°58' E 001°51'1415.2
2014-Jul-20 21:27N 51°04' E 001°30'7 5.4
2014-Jul-20 20:07N 51°07' E 001°20'915.3
2014-Jul-20 19:33N 51°05' E 001°33'13 8.8
2014-Jul-20 18:06N 50°58' E 001°51'1118.8
2014-Jul-20 17:33N 51°01' E 001°34'1111.3
2014-Jul-20 16:32N 51°07' E 001°20'1010.0
2014-Jul-20 15:33N 51°04' E 001°34'8 4.1
2014-Jul-20 13:30N 50°58' E 001°44'17 7.2
2014-Jul-20 11:12N 51°07' E 001°22'1015.6
2014-Jul-20 10:34N 51°02' E 001°36'10 8.2
2014-Jul-20 09:17N 50°58' E 001°51'8 8.9
2014-Jul-20 08:23N 50°58' E 001°38'1416.4
2014-Jul-20 07:30N 51°07' E 001°20'0 0.0
2014-Jul-20 06:16N 51°07' E 001°20'6 7.9
2014-Jul-20 05:34N 51°06' E 001°28'1616.1
2014-Jul-20 04:34N 50°58' E 001°51'1 0.7
2014-Jul-20 03:33N 50°58' E 001°50'1717.0
2014-Jul-20 02:33N 51°05' E 001°25'5 0.8
2014-Jul-19 20:33N 51°04' E 001°33'1312.9
2014-Jul-19 19:33N 50°58' E 001°51'0 0.1
2014-Jul-19 18:32N 50°58' E 001°51'7 7.5
2014-Jul-19 17:33N 50°59' E 001°39'11 5.3
2014-Jul-19 15:34N 51°07' E 001°28'1716.6
2014-Jul-19 14:33N 50°58' E 001°51'0 0.2
2014-Jul-19 13:22N 50°58' E 001°50'1417.0
2014-Jul-19 12:34N 51°03' E 001°30'2 0.9
2014-Jul-19 10:33N 51°03' E 001°33'11 5.4
2014-Jul-19 08:33N 50°58' E 001°48'18 7.4
2014-Jul-19 06:04N 51°07' E 001°22'917.7
2014-Jul-19 05:33N 51°03' E 001°35'1110.8
2014-Jul-19 04:32N 50°58' E 001°51'3 3.3
2014-Jul-19 03:33N 50°58' E 001°46'1615.6
2014-Jul-19 02:33N 51°06' E 001°25'3 3.3
2014-Jul-19 01:32N 51°07' E 001°20'5 5.0
2014-Jul-19 00:33N 51°06' E 001°27'1716.7
2014-Jul-18 23:33N 50°58' E 001°51'3 2.8
2014-Jul-18 22:34N 50°58' E 001°47'18 8.7
2014-Jul-18 20:30N 51°07' E 001°23'5 5.8
2014-Jul-18 19:33N 51°05' E 001°30'1514.5
2014-Jul-18 18:33N 50°58' E 001°51'6 5.6
2014-Jul-18 17:33N 50°58' E 001°42'1716.6
2014-Jul-18 16:33N 51°07' E 001°20'2 2.1
2014-Jul-18 15:34N 51°07' E 001°23'  

Dump ship's entire track history